createdAt,value
2022-11-05T00:00:03.302Z,8.27
2022-11-05T00:02:22.148Z,6.93
2022-11-05T00:04:40.002Z,8.65
2022-11-05T00:09:15.288Z,6.93
2022-11-05T00:11:40.722Z,7.15
2022-11-05T00:14:01.164Z,6.22
2022-11-05T00:16:19.372Z,7.05
2022-11-05T00:18:24.707Z,6.50
2022-11-05T00:20:30.074Z,6.63
2022-11-05T00:22:47.535Z,6.85
2022-11-05T00:25:05.354Z,6.72
2022-11-05T00:29:19.211Z,6.07
2022-11-05T00:31:24.478Z,6.22
2022-11-05T00:33:29.451Z,6.07
2022-11-05T00:35:35.463Z,6.70
2022-11-05T00:37:43.303Z,6.63
2022-11-05T00:39:52.519Z,7.78
2022-11-05T00:42:09.742Z,7.18
2022-11-05T00:44:39.804Z,6.70
2022-11-05T00:46:47.672Z,6.80
2022-11-05T00:51:11.403Z,6.38
2022-11-05T00:53:16.480Z,7.05
2022-11-05T00:55:21.756Z,6.47
2022-11-05T00:57:27.037Z,7.32
2022-11-05T00:59:32.327Z,7.10
2022-11-05T01:01:37.310Z,7.50
2022-11-05T01:03:51.284Z,6.78
2022-11-05T01:06:00.536Z,7.05
2022-11-05T01:08:05.681Z,7.75
2022-11-05T01:10:12.098Z,6.88
2022-11-05T01:12:17.495Z,6.93
2022-11-05T01:14:22.829Z,7.35
2022-11-05T01:16:27.784Z,6.95
2022-11-05T01:18:33.072Z,7.05
2022-11-05T01:20:41.965Z,7.72
2022-11-05T01:22:47.336Z,7.60
2022-11-05T01:24:52.566Z,7.55
2022-11-05T01:26:57.546Z,6.80
2022-11-05T01:29:03.373Z,8.00
2022-11-05T01:31:09.008Z,7.55
2022-11-05T01:33:14.304Z,7.90
2022-11-05T01:35:21.042Z,7.43
2022-11-05T01:37:29.429Z,8.05
2022-11-05T01:39:34.712Z,7.90
2022-11-05T01:41:40.199Z,7.43
2022-11-05T01:43:52.245Z,8.80
2022-11-05T01:46:01.747Z,8.43
2022-11-05T01:48:14.288Z,8.05
2022-11-05T01:50:47.361Z,7.43
2022-11-05T01:53:02.644Z,8.82
2022-11-05T01:55:10.378Z,8.70
2022-11-05T01:57:16.719Z,8.55
2022-11-05T01:59:26.114Z,8.63
2022-11-05T02:01:31.622Z,7.68
2022-11-05T02:03:37.722Z,8.40
2022-11-05T02:05:44.694Z,8.15
2022-11-05T02:07:51.323Z,8.18
2022-11-05T02:10:05.292Z,8.25
2022-11-05T02:12:12.141Z,7.88
2022-11-05T02:14:18.679Z,8.00
2022-11-05T02:16:39.408Z,7.90
2022-11-05T02:18:59.351Z,8.38
2022-11-05T02:21:30.875Z,9.13
2022-11-05T02:24:19.891Z,8.73
2022-11-05T02:26:57.826Z,7.50
2022-11-05T02:29:53.077Z,8.27
2022-11-05T02:32:06.599Z,9.00
2022-11-05T02:34:23.386Z,7.82
2022-11-05T02:36:44.420Z,8.13
2022-11-05T02:39:01.259Z,8.07
2022-11-05T02:41:16.066Z,7.97
2022-11-05T02:43:34.121Z,8.85
2022-11-05T02:45:51.082Z,8.32
2022-11-05T02:50:25.760Z,8.40
2022-11-05T02:52:39.172Z,8.57
2022-11-05T02:54:51.019Z,8.27
2022-11-05T02:56:59.726Z,8.60
2022-11-05T02:59:04.703Z,8.02
2022-11-05T03:01:12.819Z,8.38
2022-11-05T03:03:32.080Z,8.10
2022-11-05T03:05:47.964Z,7.80
2022-11-05T03:07:59.772Z,7.97
2022-11-05T03:10:43.285Z,9.40
2022-11-05T03:13:05.805Z,9.07
2022-11-05T03:15:23.522Z,9.07
2022-11-05T03:17:39.587Z,9.60
2022-11-05T03:19:53.085Z,8.63
2022-11-05T03:22:14.210Z,8.98
2022-11-05T03:24:24.463Z,8.45
2022-11-05T03:26:34.585Z,9.88
2022-11-05T03:28:45.304Z,9.35
2022-11-05T03:30:53.130Z,9.65
2022-11-05T03:33:05.721Z,8.98
2022-11-05T03:35:19.979Z,8.70
2022-11-05T03:37:26.867Z,8.75
2022-11-05T03:39:36.796Z,8.80
2022-11-05T03:41:46.604Z,8.43
2022-11-05T03:43:57.868Z,8.40
2022-11-05T03:46:08.108Z,8.50
2022-11-05T03:48:19.125Z,9.20
2022-11-05T03:50:40.950Z,8.77
2022-11-05T03:52:54.357Z,8.95
2022-11-05T03:54:59.427Z,8.07
2022-11-05T03:57:10.748Z,9.23
2022-11-05T03:59:16.590Z,8.85
2022-11-05T04:01:21.971Z,8.95
2022-11-05T04:03:27.092Z,8.80
2022-11-05T04:05:35.012Z,8.63
2022-11-05T04:10:10.079Z,8.30
2022-11-05T04:12:27.599Z,7.38
2022-11-05T04:14:33.968Z,7.65
2022-11-05T04:16:51.902Z,7.75
2022-11-05T04:18:56.900Z,9.13
2022-11-05T04:21:17.504Z,8.38
2022-11-05T04:23:34.943Z,8.45
2022-11-05T04:27:45.571Z,7.95
2022-11-05T04:30:03.348Z,8.38
2022-11-05T04:34:16.256Z,7.25
2022-11-05T04:36:27.954Z,8.10
2022-11-05T04:38:33.331Z,8.38
2022-11-05T04:40:39.577Z,8.07
2022-11-05T04:42:45.245Z,8.63
2022-11-05T04:44:50.943Z,7.63
2022-11-05T04:46:58.309Z,8.70
2022-11-05T04:49:04.118Z,8.43
2022-11-05T04:51:13.105Z,8.32
2022-11-05T04:53:21.016Z,8.52
2022-11-05T04:55:26.297Z,6.90
2022-11-05T04:57:32.914Z,7.43
2022-11-05T04:59:37.919Z,7.75
2022-11-05T05:01:43.018Z,7.93
2022-11-05T05:03:51.012Z,7.80
2022-11-05T05:05:59.470Z,8.10
2022-11-05T05:08:09.383Z,7.45
2022-11-05T05:10:17.280Z,7.93
2022-11-05T05:14:27.446Z,7.75
2022-11-05T05:16:32.424Z,7.15
2022-11-05T05:18:42.239Z,8.02
2022-11-05T05:21:03.816Z,6.82
2022-11-05T05:23:09.123Z,7.90
2022-11-05T05:25:17.569Z,7.60
2022-11-05T05:27:22.891Z,7.65
2022-11-05T05:29:27.845Z,7.50
2022-11-05T05:31:33.146Z,8.02
2022-11-05T05:33:38.617Z,9.20
2022-11-05T05:35:43.608Z,8.07
2022-11-05T05:37:49.218Z,8.88
2022-11-05T05:39:56.377Z,8.98
2022-11-05T05:42:03.928Z,8.18
2022-11-05T05:44:09.457Z,8.48
2022-11-05T05:46:17.481Z,8.65
2022-11-05T05:48:23.672Z,9.15
2022-11-05T05:50:28.975Z,9.60
2022-11-05T05:52:34.532Z,9.45
2022-11-05T05:54:42.869Z,9.00
2022-11-05T05:56:48.591Z,10.00
2022-11-05T05:58:56.260Z,9.50
2022-11-05T06:03:09.592Z,7.97
2022-11-05T06:05:15.155Z,8.48
2022-11-05T06:07:20.305Z,8.65
2022-11-05T06:09:25.635Z,7.70
2022-11-05T06:11:31.457Z,7.97
2022-11-05T06:13:36.916Z,8.18
2022-11-05T06:15:45.860Z,8.93
2022-11-05T06:17:51.474Z,8.55
2022-11-05T06:19:56.678Z,8.85
2022-11-05T06:22:02.832Z,9.63
2022-11-05T06:24:09.142Z,8.60
2022-11-05T06:26:17.699Z,9.95
2022-11-05T06:28:22.711Z,9.38
2022-11-05T06:30:27.730Z,10.85
2022-11-05T06:32:35.285Z,17.27
2022-11-05T06:36:48.157Z,8.40
2022-11-05T06:38:53.289Z,8.48
2022-11-05T06:41:07.150Z,8.65
2022-11-05T06:43:14.571Z,7.35
2022-11-05T06:45:20.085Z,9.40
2022-11-05T06:47:25.353Z,9.00
2022-11-05T06:49:34.112Z,14.75
2022-11-05T06:51:39.109Z,13.05
2022-11-05T06:53:44.219Z,8.50
2022-11-05T06:55:51.315Z,7.35
2022-11-05T06:57:56.520Z,6.60
2022-11-05T07:00:07.581Z,5.88
2022-11-05T07:02:17.225Z,7.00
2022-11-05T07:04:24.683Z,5.60
2022-11-05T07:06:36.816Z,6.82
2022-11-05T07:08:42.957Z,7.82
2022-11-05T07:10:47.938Z,9.13
2022-11-05T07:12:52.997Z,10.38
2022-11-05T07:14:58.014Z,15.38
2022-11-05T07:17:06.047Z,10.75
2022-11-05T07:21:16.696Z,12.90
2022-11-05T07:23:24.626Z,10.40
2022-11-05T07:25:32.314Z,12.70
2022-11-05T07:27:44.041Z,15.02
2022-11-05T07:29:50.068Z,12.35
2022-11-05T07:31:55.034Z,13.88
2022-11-05T07:34:01.325Z,14.30
2022-11-05T07:36:07.519Z,11.32
2022-11-05T07:38:14.469Z,9.93
2022-11-05T07:40:25.631Z,10.70
2022-11-05T07:42:30.657Z,11.27
2022-11-05T07:44:37.162Z,10.40
2022-11-05T07:46:43.642Z,11.23
2022-11-05T07:48:48.624Z,14.32
2022-11-05T07:50:55.461Z,13.70
2022-11-05T07:53:04.416Z,13.35
2022-11-05T07:55:11.475Z,14.23
2022-11-05T07:57:20.096Z,13.20
2022-11-05T07:59:25.181Z,13.27
2022-11-05T08:01:30.334Z,14.15
2022-11-05T08:03:35.847Z,13.18
2022-11-05T08:05:44.562Z,13.35
2022-11-05T08:07:49.707Z,12.65
2022-11-05T08:09:55.151Z,12.82
2022-11-05T08:12:03.345Z,13.00
2022-11-05T08:14:11.257Z,12.88
2022-11-05T08:18:31.323Z,12.82
2022-11-05T08:20:38.525Z,12.40
2022-11-05T08:22:46.418Z,13.32
2022-11-05T08:24:53.278Z,13.35
2022-11-05T08:26:58.642Z,14.32
2022-11-05T08:29:04.017Z,13.45
2022-11-05T08:31:11.567Z,13.05
2022-11-05T08:33:17.266Z,12.00
2022-11-05T08:35:22.988Z,12.18
2022-11-05T08:37:28.825Z,10.88
2022-11-05T08:39:34.928Z,12.13
2022-11-05T08:41:42.033Z,12.73
2022-11-05T08:43:47.208Z,12.35
2022-11-05T08:45:52.597Z,12.65
2022-11-05T08:48:05.899Z,11.02
2022-11-05T08:50:12.358Z,11.70
2022-11-05T08:52:19.096Z,12.05
2022-11-05T08:54:24.445Z,11.23
2022-11-05T08:56:30.034Z,12.65
2022-11-05T08:58:35.675Z,11.73
2022-11-05T09:00:41.437Z,10.82
2022-11-05T09:02:46.774Z,10.52
2022-11-05T09:04:54.408Z,10.52
2022-11-05T09:07:01.664Z,10.82
2022-11-05T09:09:08.203Z,11.18
2022-11-05T09:11:13.750Z,10.77
2022-11-05T09:13:20.603Z,11.77
2022-11-05T09:15:26.278Z,9.73
2022-11-05T09:17:31.573Z,10.02
2022-11-05T09:19:39.808Z,8.85
2022-11-05T09:21:48.031Z,9.27
2022-11-05T09:23:53.163Z,8.73
2022-11-05T09:25:58.239Z,9.00
2022-11-05T09:28:16.228Z,8.75
2022-11-05T09:30:22.328Z,8.02
2022-11-05T09:32:27.454Z,7.35
2022-11-05T09:34:32.552Z,7.03
2022-11-05T09:36:37.560Z,7.30
2022-11-05T09:38:45.161Z,7.22
2022-11-05T09:41:00.160Z,6.60
2022-11-05T09:43:06.217Z,5.13
2022-11-05T09:45:18.353Z,5.75
2022-11-05T09:47:30.342Z,6.35
2022-11-05T09:49:41.310Z,5.70
2022-11-05T09:51:47.916Z,5.72
2022-11-05T09:53:57.492Z,8.18
2022-11-05T09:56:04.985Z,7.35
2022-11-05T09:58:23.200Z,7.30
2022-11-05T10:00:31.841Z,9.02
2022-11-05T10:02:44.798Z,10.40
2022-11-05T10:04:54.076Z,11.10
2022-11-05T10:07:03.708Z,10.23
2022-11-05T10:09:20.814Z,12.13
2022-11-05T10:11:34.812Z,11.52
2022-11-05T10:13:47.244Z,8.82
2022-11-05T10:16:02.721Z,7.13
2022-11-05T10:18:20.730Z,6.80
2022-11-05T10:20:35.413Z,6.78
2022-11-05T10:22:48.280Z,6.10
2022-11-05T10:24:58.762Z,5.63
2022-11-05T10:27:04.314Z,5.13
2022-11-05T10:29:09.357Z,5.22
2022-11-05T10:31:17.608Z,6.72
2022-11-05T10:33:31.664Z,5.35
2022-11-05T10:35:43.966Z,5.82
2022-11-05T10:37:49.316Z,5.57
2022-11-05T10:39:57.932Z,6.18
2022-11-05T10:42:17.233Z,5.30
2022-11-05T10:44:37.379Z,5.05
2022-11-05T10:46:53.845Z,5.65
2022-11-05T10:49:27.578Z,4.70
2022-11-05T10:51:34.613Z,5.50
2022-11-05T10:53:42.533Z,5.40
2022-11-05T10:55:54.333Z,5.00
2022-11-05T10:58:12.483Z,4.93
2022-11-05T11:00:31.653Z,4.53
2022-11-05T11:02:42.321Z,5.13
2022-11-05T11:04:53.772Z,5.53
2022-11-05T11:07:03.070Z,5.28
2022-11-05T11:09:28.903Z,5.25
2022-11-05T11:11:40.490Z,5.05
2022-11-05T11:14:01.774Z,5.40
2022-11-05T11:16:23.715Z,5.15
2022-11-05T11:18:41.948Z,5.82
2022-11-05T11:20:48.475Z,5.07
2022-11-05T11:23:14.415Z,4.45
2022-11-05T11:25:27.600Z,4.50
2022-11-05T11:27:37.142Z,3.65
2022-11-05T11:29:49.351Z,3.65
2022-11-05T11:31:57.810Z,4.55
2022-11-05T11:34:06.669Z,3.75
2022-11-05T11:36:18.657Z,3.83
2022-11-05T11:38:26.711Z,4.10
2022-11-05T11:40:35.943Z,3.97
2022-11-05T11:42:47.785Z,3.78
2022-11-05T11:44:55.103Z,4.32
2022-11-05T11:47:04.806Z,3.80
2022-11-05T11:49:30.103Z,3.80
2022-11-05T11:51:40.760Z,4.18
2022-11-05T11:53:46.149Z,4.30
2022-11-05T11:56:06.005Z,4.43
2022-11-05T11:58:13.970Z,4.55
2022-11-05T12:00:24.805Z,3.88
2022-11-05T12:03:17.376Z,4.20
2022-11-05T12:05:46.336Z,4.53
2022-11-05T12:07:56.100Z,3.70
2022-11-05T12:10:18.043Z,3.95
2022-11-05T12:12:30.503Z,3.95
2022-11-05T12:14:51.453Z,4.00
2022-11-05T12:17:20.224Z,3.85
2022-11-05T12:19:52.347Z,3.42
2022-11-05T12:22:06.815Z,3.75
2022-11-05T12:24:33.957Z,3.40
2022-11-05T12:29:27.345Z,3.17
2022-11-05T12:31:56.753Z,2.42
2022-11-05T12:34:21.243Z,2.03
2022-11-05T12:36:43.505Z,2.17
2022-11-05T12:39:22.768Z,1.90
2022-11-05T12:41:33.826Z,2.70
2022-11-05T12:43:57.639Z,1.90
2022-11-05T12:46:17.866Z,2.20
2022-11-05T12:48:55.758Z,2.80
2022-11-05T12:51:11.944Z,3.35
2022-11-05T12:53:44.589Z,4.20
2022-11-05T12:55:52.607Z,4.13
2022-11-05T12:58:13.140Z,4.30
2022-11-05T13:00:22.978Z,4.03
2022-11-05T13:02:33.637Z,4.82
2022-11-05T13:04:49.115Z,4.18
2022-11-05T13:06:58.226Z,5.05
2022-11-05T13:09:10.464Z,6.43
2022-11-05T13:11:24.615Z,4.18
2022-11-05T13:13:35.047Z,4.40
2022-11-05T13:15:49.208Z,4.32
2022-11-05T13:18:01.099Z,4.38
2022-11-05T13:20:18.672Z,2.53
2022-11-05T13:22:38.895Z,2.85
2022-11-05T13:24:52.430Z,2.83
2022-11-05T13:27:07.778Z,2.70
2022-11-05T13:29:21.104Z,3.03
2022-11-05T13:31:35.060Z,2.75
2022-11-05T13:33:49.506Z,2.95
2022-11-05T13:36:16.024Z,2.20
2022-11-05T13:38:58.547Z,2.55
2022-11-05T13:41:23.281Z,3.10
2022-11-05T13:43:47.748Z,3.00
2022-11-05T13:46:15.602Z,2.88
2022-11-05T13:48:45.745Z,2.60
2022-11-05T13:51:28.979Z,2.50
2022-11-05T13:54:25.195Z,2.72
2022-11-05T13:56:45.497Z,2.10
2022-11-05T13:59:07.160Z,2.53
2022-11-05T14:01:22.682Z,1.73
2022-11-05T14:03:28.251Z,1.83
2022-11-05T14:05:38.453Z,1.85
2022-11-05T14:07:49.776Z,2.90
2022-11-05T14:09:59.442Z,2.03
2022-11-05T14:12:05.826Z,2.10
2022-11-05T14:14:20.879Z,2.17
2022-11-05T14:16:42.253Z,2.00
2022-11-05T14:18:49.588Z,2.05
2022-11-05T14:21:03.323Z,2.45
2022-11-05T14:23:42.755Z,2.00
2022-11-05T14:26:14.478Z,2.28
2022-11-05T14:28:43.906Z,2.08
2022-11-05T14:30:51.314Z,1.98
2022-11-05T14:33:07.485Z,2.22
2022-11-05T14:35:41.047Z,2.15
2022-11-05T14:37:57.615Z,2.90
2022-11-05T14:40:42.385Z,2.88
2022-11-05T14:42:54.590Z,2.85
2022-11-05T14:45:27.925Z,2.40
2022-11-05T14:47:38.515Z,2.22
2022-11-05T14:49:56.065Z,2.53
2022-11-05T14:54:20.976Z,3.28
2022-11-05T14:56:29.119Z,3.03
2022-11-05T14:58:38.624Z,2.95
2022-11-05T15:00:50.808Z,2.97
2022-11-05T15:03:01.425Z,2.95
2022-11-05T15:05:41.582Z,3.25
2022-11-05T15:07:46.654Z,3.03
2022-11-05T15:09:58.707Z,3.30
2022-11-05T15:12:25.914Z,2.90
2022-11-05T15:14:35.328Z,3.20
2022-11-05T15:16:47.013Z,3.45
2022-11-05T15:18:54.128Z,3.10
2022-11-05T15:21:05.949Z,3.53
2022-11-05T15:23:16.841Z,3.65
2022-11-05T15:25:26.989Z,3.63
2022-11-05T15:28:07.922Z,3.65
2022-11-05T15:30:25.040Z,3.63
2022-11-05T15:32:35.898Z,3.60
2022-11-05T15:34:54.915Z,3.90
2022-11-05T15:37:03.915Z,4.05
2022-11-05T15:39:33.388Z,3.97
2022-11-05T15:41:39.076Z,3.85
2022-11-05T15:43:51.145Z,4.07
2022-11-05T15:46:09.411Z,4.53
2022-11-05T15:48:21.589Z,4.60
2022-11-05T15:50:26.938Z,5.32
2022-11-05T15:52:42.104Z,5.55
2022-11-05T15:54:48.692Z,5.20
2022-11-05T15:56:57.499Z,5.47
2022-11-05T15:59:07.744Z,7.10
2022-11-05T16:01:28.528Z,6.97
2022-11-05T16:03:37.399Z,5.53
2022-11-05T16:05:46.968Z,5.00
2022-11-05T16:07:52.932Z,6.13
2022-11-05T16:10:00.989Z,6.25
2022-11-05T16:12:25.694Z,6.38
2022-11-05T16:14:37.872Z,6.85
2022-11-05T16:16:46.099Z,7.18
2022-11-05T16:18:51.531Z,7.00
2022-11-05T16:21:08.029Z,8.38
2022-11-05T16:23:26.754Z,8.55
2022-11-05T16:25:39.831Z,8.73
2022-11-05T16:27:49.105Z,8.65
2022-11-05T16:29:59.504Z,8.63
2022-11-05T16:32:09.501Z,7.32
2022-11-05T16:34:29.629Z,7.68
2022-11-05T16:36:38.154Z,7.80
2022-11-05T16:38:44.646Z,8.88
2022-11-05T16:40:49.828Z,8.07
2022-11-05T16:42:56.104Z,7.70
2022-11-05T16:45:04.624Z,7.55
2022-11-05T16:47:11.753Z,7.97
2022-11-05T16:49:17.555Z,7.07
2022-11-05T16:51:27.326Z,6.55
2022-11-05T16:53:32.661Z,6.32
2022-11-05T16:55:41.388Z,5.50
2022-11-05T16:57:50.589Z,4.95
2022-11-05T16:59:57.329Z,4.75
2022-11-05T17:02:07.043Z,4.93
2022-11-05T17:06:21.601Z,4.97
2022-11-05T17:08:26.715Z,5.22
2022-11-05T17:10:32.594Z,4.97
2022-11-05T17:12:38.000Z,5.10
2022-11-05T17:14:43.183Z,5.30
2022-11-05T17:16:48.165Z,5.40
2022-11-05T17:18:56.777Z,4.78
2022-11-05T17:21:01.821Z,4.97
2022-11-05T17:23:10.324Z,5.20
2022-11-05T17:25:15.646Z,4.72
2022-11-05T17:27:20.685Z,4.45
2022-11-05T17:29:25.999Z,4.93
2022-11-05T17:31:31.334Z,4.70
2022-11-05T17:33:36.416Z,4.72
2022-11-05T17:35:45.430Z,4.90
2022-11-05T17:37:53.272Z,4.90
2022-11-05T17:42:03.857Z,4.80
2022-11-05T17:44:08.904Z,5.55
2022-11-05T17:46:19.309Z,6.15
2022-11-05T17:48:26.993Z,6.20
2022-11-05T17:50:32.103Z,6.60
2022-11-05T17:52:40.365Z,6.85
2022-11-05T17:56:50.992Z,6.93
2022-11-05T17:58:57.956Z,7.68
2022-11-05T18:01:06.087Z,7.60
2022-11-05T18:03:16.189Z,7.28
2022-11-05T18:05:24.428Z,7.55
2022-11-05T18:07:30.040Z,7.35
2022-11-05T18:09:37.668Z,7.95
2022-11-05T18:13:52.981Z,7.82
2022-11-05T18:15:58.523Z,10.95
2022-11-05T18:18:03.544Z,11.43
2022-11-05T18:20:18.393Z,10.80
2022-11-05T18:22:26.907Z,9.80
2022-11-05T18:24:32.270Z,7.90
2022-11-05T18:26:40.679Z,9.57
2022-11-05T18:30:51.581Z,7.32
2022-11-05T18:32:57.113Z,7.13
2022-11-05T18:35:02.480Z,8.30
2022-11-05T18:37:07.525Z,7.32
2022-11-05T18:39:12.920Z,8.40
2022-11-05T18:41:21.033Z,9.05
2022-11-05T18:43:28.603Z,9.38
2022-11-05T18:45:34.209Z,9.90
2022-11-05T18:47:39.334Z,9.38
2022-11-05T18:49:44.294Z,10.52
2022-11-05T18:51:49.972Z,10.77
2022-11-05T18:53:58.093Z,9.77
2022-11-05T18:56:03.445Z,10.13
2022-11-05T18:58:08.497Z,10.10
2022-11-05T19:00:18.710Z,10.05
2022-11-05T19:02:24.056Z,9.30
2022-11-05T19:04:30.593Z,9.23
2022-11-05T19:06:36.977Z,10.07
2022-11-05T19:08:42.183Z,8.80
2022-11-05T19:10:52.428Z,9.75
2022-11-05T19:12:57.846Z,9.80
2022-11-05T19:15:03.302Z,9.35
2022-11-05T19:17:11.069Z,9.90
2022-11-05T19:19:16.060Z,10.15
2022-11-05T19:21:25.188Z,9.32
2022-11-05T19:23:30.329Z,9.43
2022-11-05T19:25:35.385Z,8.20
2022-11-05T19:27:41.115Z,7.07
2022-11-05T19:29:46.097Z,7.70
2022-11-05T19:31:52.194Z,7.53
2022-11-05T19:34:01.068Z,8.05
2022-11-05T19:36:08.976Z,8.05
2022-11-05T19:38:14.490Z,8.18
2022-11-05T19:40:21.801Z,8.02
2022-11-05T19:42:26.881Z,8.05
2022-11-05T19:44:32.029Z,7.72
2022-11-05T19:46:37.205Z,8.05
2022-11-05T19:48:43.141Z,8.40
2022-11-05T19:50:50.706Z,8.35
2022-11-05T19:52:55.698Z,7.95
2022-11-05T19:55:00.668Z,8.40
2022-11-05T19:57:06.531Z,8.52
2022-11-05T19:59:13.722Z,8.40
2022-11-05T20:01:20.823Z,8.43
2022-11-05T20:03:27.416Z,7.60
2022-11-05T20:05:35.491Z,7.72
2022-11-05T20:07:46.956Z,7.95
2022-11-05T20:09:55.348Z,7.97
2022-11-05T20:12:00.338Z,8.05
2022-11-05T20:14:07.448Z,9.32
2022-11-05T20:16:24.040Z,14.07
2022-11-05T20:18:30.012Z,9.35
2022-11-05T20:20:35.367Z,9.40
2022-11-05T20:22:43.457Z,13.93
2022-11-05T20:24:48.501Z,10.20
2022-11-05T20:26:53.630Z,8.82
2022-11-05T20:28:59.325Z,8.13
2022-11-05T20:31:10.307Z,8.48
2022-11-05T20:33:15.701Z,8.68
2022-11-05T20:35:20.918Z,8.80
2022-11-05T20:37:27.789Z,9.52
2022-11-05T20:39:36.191Z,9.63
2022-11-05T20:41:41.332Z,10.10
2022-11-05T20:43:46.916Z,9.00
2022-11-05T20:45:52.961Z,9.75
2022-11-05T20:47:58.966Z,10.13
2022-11-05T20:50:04.969Z,9.30
2022-11-05T20:52:10.284Z,9.00
2022-11-05T20:54:15.989Z,9.70
2022-11-05T20:56:26.249Z,9.25
2022-11-05T20:58:31.639Z,8.57
2022-11-05T21:00:36.875Z,9.13
2022-11-05T21:02:42.484Z,8.77
2022-11-05T21:04:47.662Z,8.85
2022-11-05T21:06:53.604Z,8.93
2022-11-05T21:08:59.049Z,8.80
2022-11-05T21:11:04.593Z,9.32
2022-11-05T21:13:12.954Z,10.88
2022-11-05T21:15:20.419Z,10.32
2022-11-05T21:17:25.995Z,10.40
2022-11-05T21:19:32.813Z,10.02
2022-11-05T21:21:41.109Z,10.60
2022-11-05T21:23:46.920Z,10.60
2022-11-05T21:25:53.152Z,11.32
2022-11-05T21:27:58.137Z,10.85
2022-11-05T21:30:07.645Z,11.13
2022-11-05T21:32:13.084Z,10.02
2022-11-05T21:34:20.998Z,11.20
2022-11-05T21:36:26.008Z,11.30
2022-11-05T21:38:31.298Z,11.20
2022-11-05T21:40:36.293Z,10.82
2022-11-05T21:42:42.073Z,10.60
2022-11-05T21:44:47.428Z,11.38
2022-11-05T21:46:58.612Z,10.55
2022-11-05T21:49:03.680Z,11.30
2022-11-05T21:51:21.578Z,11.43
2022-11-05T21:55:57.801Z,12.32
2022-11-05T21:58:31.496Z,11.60
2022-11-05T22:00:38.144Z,12.10
2022-11-05T22:02:46.412Z,11.40
2022-11-05T22:04:54.543Z,12.23
2022-11-05T22:09:04.737Z,11.70
2022-11-05T22:11:09.757Z,11.48
2022-11-05T22:13:14.750Z,11.32
2022-11-05T22:15:20.674Z,12.18
2022-11-05T22:17:26.118Z,11.55
2022-11-05T22:19:33.986Z,12.68
2022-11-05T22:21:39.084Z,11.25
2022-11-05T22:23:44.453Z,11.75
2022-11-05T22:25:49.749Z,13.07
2022-11-05T22:27:54.706Z,11.73
2022-11-05T22:30:00.717Z,12.30
2022-11-05T22:32:09.243Z,12.13
2022-11-05T22:34:14.727Z,11.10
2022-11-05T22:36:23.944Z,11.85
2022-11-05T22:38:30.218Z,11.82
2022-11-05T22:40:35.926Z,11.85
2022-11-05T22:42:40.999Z,12.25
2022-11-05T22:44:47.233Z,11.68
2022-11-05T22:46:53.608Z,12.23
2022-11-05T22:48:59.726Z,11.85
2022-11-05T22:51:10.806Z,12.38
2022-11-05T22:53:18.432Z,12.45
2022-11-05T22:57:29.624Z,11.38
2022-11-05T22:59:35.804Z,12.00
2022-11-05T23:01:43.940Z,12.98
2022-11-05T23:03:54.217Z,12.32
2022-11-05T23:06:03.917Z,14.30
2022-11-05T23:08:21.780Z,13.30
2022-11-05T23:10:42.161Z,12.57
2022-11-05T23:12:47.146Z,12.63
2022-11-05T23:14:52.808Z,12.23
2022-11-05T23:19:32.684Z,12.18
2022-11-05T23:21:50.233Z,12.00
2022-11-05T23:24:07.053Z,12.10
2022-11-05T23:26:28.106Z,11.57
2022-11-05T23:28:33.064Z,12.38
2022-11-05T23:31:01.877Z,13.07
2022-11-05T23:33:04.596Z,12.82
2022-11-05T23:35:15.039Z,12.80
2022-11-05T23:37:32.514Z,12.40
2022-11-05T23:39:42.389Z,12.40
2022-11-05T23:42:02.967Z,11.90
2022-11-05T23:44:35.525Z,12.25
2022-11-05T23:46:53.032Z,12.93
2022-11-05T23:48:58.032Z,12.20
2022-11-05T23:51:06.666Z,12.07
2022-11-05T23:53:12.370Z,12.65
2022-11-05T23:55:17.625Z,13.32
2022-11-05T23:57:25.189Z,12.32
2022-11-05T23:59:30.280Z,12.82
